Salten — LMFM — position and weather

sailwx.info

Track history (hours):
 
Tides and Currents Weather Stations Pressure Air Temp Water Temp Dewpoint Dewpoint Depression Visibility Wind Speed Wind Dir Waves Ship Positions

Salten

Last reported at 2015-Jan-24 14:17 UTC. Time now 2015-Jan-27 05:49 UTC.
Position N 67°29' E 014°37'.

Length 41 m; draft 1.5 m.

Type: High speed craft. MMSI: 259387000.

Date/timePositionNaut miles runAvg speedWind from/ knotsBaromVisibWave heightAir tempDewpointWater temp
2015-Jan-24 14:17N 67°29' E 014°37'1115.4
2015-Jan-24 13:33N 67°19' E 014°24'2 1.7
2015-Jan-24 12:33N 67°17' E 014°22'1210.9
2015-Jan-24 11:27N 67°08' E 014°01'4511.3
2015-Jan-24 07:29N 66°30' E 012°60'23 2.1
2015-Jan-23 20:19N 66°07' E 012°47'1419.2
2015-Jan-23 19:33N 66°22' E 012°49'1211.8
2015-Jan-23 18:33N 66°33' E 012°57'4214.1
2015-Jan-23 15:34N 67°08' E 013°58'1313.0
2015-Jan-23 14:33N 67°17' E 014°22'0 0.0
2015-Jan-23 13:33N 67°17' E 014°22'0 0.0
2015-Jan-23 12:33N 67°17' E 014°22'0 0.0
2015-Jan-23 11:33N 67°17' E 014°22'1110.8
2015-Jan-23 10:33N 67°09' E 014°02'4615.1
2015-Jan-23 07:30N 66°30' E 012°60'2518.6
2015-Jan-23 06:09N 66°06' E 012°42'69 4.7
2015-Jan-22 15:33N 67°07' E 014°03'1212.3
2015-Jan-22 14:33N 67°17' E 014°22'0 0.0
2015-Jan-22 13:33N 67°17' E 014°22'0 0.0
2015-Jan-22 12:33N 67°17' E 014°22'0 0.0
2015-Jan-22 11:33N 67°17' E 014°22'0 0.0
2015-Jan-22 10:33N 67°17' E 014°22'0 0.0
2015-Jan-22 09:33N 67°17' E 014°22'8 7.9
2015-Jan-22 08:33N 67°25' E 014°26'0 0.0
2015-Jan-21 16:33N 67°24' E 014°26'8 7.5
2015-Jan-21 15:33N 67°17' E 014°22'0 0.0
2015-Jan-21 14:33N 67°17' E 014°22'0 0.0
2015-Jan-21 13:33N 67°17' E 014°22'0 0.0
2015-Jan-21 12:33N 67°17' E 014°22'0 0.0
2015-Jan-21 11:33N 67°17' E 014°22'12 0.6
2015-Jan-20 15:29N 67°07' E 014°03'1213.2
2015-Jan-20 14:33N 67°17' E 014°22'0 0.0
2015-Jan-20 13:33N 67°17' E 014°22'0 0.0
2015-Jan-20 12:33N 67°17' E 014°22'0 0.0
2015-Jan-20 11:33N 67°17' E 014°22'0 0.0
2015-Jan-20 10:33N 67°17' E 014°22'0 0.0
2015-Jan-20 09:33N 67°17' E 014°22'1110.6
2015-Jan-20 08:33N 67°27' E 014°30'4 0.3
2015-Jan-19 16:33N 67°23' E 014°30'7 6.9
2015-Jan-19 15:33N 67°17' E 014°22'0 0.0
2015-Jan-19 14:33N 67°17' E 014°22'0 0.0
2015-Jan-19 13:33N 67°17' E 014°22'0 0.0
2015-Jan-19 12:33N 67°17' E 014°22'0 0.0
2015-Jan-19 11:33N 67°17' E 014°22'0 0.0
2015-Jan-19 10:33N 67°17' E 014°22'0 0.0
2015-Jan-19 09:33N 67°17' E 014°22'9 9.4
2015-Jan-19 08:33N 67°26' E 014°28'12 1.0
2015-Jan-18 20:13N 67°38' E 014°39'2131.4
2015-Jan-18 19:33N 67°18' E 014°22'1 0.7
2015-Jan-18 18:33N 67°17' E 014°22'8 0.3
2015-Jan-17 16:33N 67°24' E 014°27'8 7.6
2015-Jan-17 15:33N 67°17' E 014°22'0 0.0
2015-Jan-17 14:33N 67°17' E 014°22'0 0.0
2015-Jan-17 13:33N 67°17' E 014°22'0 0.0
2015-Jan-17 12:33N 67°17' E 014°22'0 0.0
2015-Jan-17 11:33N 67°17' E 014°22'1211.8
2015-Jan-17 10:32N 67°08' E 014°02'14 0.7
2015-Jan-16 16:11N 66°59' E 013°35'1421.3
2015-Jan-16 15:33N 67°07' E 014°02'1212.3
2015-Jan-16 14:33N 67°17' E 014°22'0 0.0
2015-Jan-16 13:33N 67°17' E 014°22'0 0.0
2015-Jan-16 12:33N 67°17' E 014°22'0 0.0
2015-Jan-16 11:33N 67°17' E 014°22'24 1.2
2015-Jan-15 16:06N 67°00' E 013°39'1220.3
2015-Jan-15 15:31N 67°07' E 014°03'1313.4
2015-Jan-15 14:33N 67°17' E 014°24'12 0.5
2015-Jan-14 15:25N 67°09' E 014°02'1213.3
2015-Jan-14 14:33N 67°17' E 014°22'  
Track history (hours):
 
Tides and Currents Weather Stations Pressure Air Temp Water Temp Dewpoint Dewpoint Depression Visibility Wind Speed Wind Dir Waves Ship Positions

Salten

Last reported at 2015-Jan-24 14:17 UTC. Time now 2015-Jan-27 05:49 UTC.
Position N 67°29' E 014°37'.

Length 41 m; draft 1.5 m.

Type: High speed craft. MMSI: 259387000.

Date/timePositionNaut miles runAvg speedWind from/ knotsBaromVisibWave heightAir tempDewpointWater temp
2015-Jan-24 14:17N 67°29' E 014°37'1115.4
2015-Jan-24 13:33N 67°19' E 014°24'2 1.7
2015-Jan-24 12:33N 67°17' E 014°22'1210.9
2015-Jan-24 11:27N 67°08' E 014°01'4511.3
2015-Jan-24 07:29N 66°30' E 012°60'23 2.1
2015-Jan-23 20:19N 66°07' E 012°47'1419.2
2015-Jan-23 19:33N 66°22' E 012°49'1211.8
2015-Jan-23 18:33N 66°33' E 012°57'4214.1
2015-Jan-23 15:34N 67°08' E 013°58'1313.0
2015-Jan-23 14:33N 67°17' E 014°22'0 0.0
2015-Jan-23 13:33N 67°17' E 014°22'0 0.0
2015-Jan-23 12:33N 67°17' E 014°22'0 0.0
2015-Jan-23 11:33N 67°17' E 014°22'1110.8
2015-Jan-23 10:33N 67°09' E 014°02'4615.1
2015-Jan-23 07:30N 66°30' E 012°60'2518.6
2015-Jan-23 06:09N 66°06' E 012°42'69 4.7
2015-Jan-22 15:33N 67°07' E 014°03'1212.3
2015-Jan-22 14:33N 67°17' E 014°22'0 0.0
2015-Jan-22 13:33N 67°17' E 014°22'0 0.0
2015-Jan-22 12:33N 67°17' E 014°22'0 0.0
2015-Jan-22 11:33N 67°17' E 014°22'0 0.0
2015-Jan-22 10:33N 67°17' E 014°22'0 0.0
2015-Jan-22 09:33N 67°17' E 014°22'8 7.9
2015-Jan-22 08:33N 67°25' E 014°26'0 0.0
2015-Jan-21 16:33N 67°24' E 014°26'8 7.5
2015-Jan-21 15:33N 67°17' E 014°22'0 0.0
2015-Jan-21 14:33N 67°17' E 014°22'0 0.0
2015-Jan-21 13:33N 67°17' E 014°22'0 0.0
2015-Jan-21 12:33N 67°17' E 014°22'0 0.0
2015-Jan-21 11:33N 67°17' E 014°22'12 0.6
2015-Jan-20 15:29N 67°07' E 014°03'1213.2
2015-Jan-20 14:33N 67°17' E 014°22'0 0.0
2015-Jan-20 13:33N 67°17' E 014°22'0 0.0
2015-Jan-20 12:33N 67°17' E 014°22'0 0.0
2015-Jan-20 11:33N 67°17' E 014°22'0 0.0
2015-Jan-20 10:33N 67°17' E 014°22'0 0.0
2015-Jan-20 09:33N 67°17' E 014°22'1110.6
2015-Jan-20 08:33N 67°27' E 014°30'4 0.3
2015-Jan-19 16:33N 67°23' E 014°30'7 6.9
2015-Jan-19 15:33N 67°17' E 014°22'0 0.0
2015-Jan-19 14:33N 67°17' E 014°22'0 0.0
2015-Jan-19 13:33N 67°17' E 014°22'0 0.0
2015-Jan-19 12:33N 67°17' E 014°22'0 0.0
2015-Jan-19 11:33N 67°17' E 014°22'0 0.0
2015-Jan-19 10:33N 67°17' E 014°22'0 0.0
2015-Jan-19 09:33N 67°17' E 014°22'9 9.4
2015-Jan-19 08:33N 67°26' E 014°28'12 1.0
2015-Jan-18 20:13N 67°38' E 014°39'2131.4
2015-Jan-18 19:33N 67°18' E 014°22'1 0.7
2015-Jan-18 18:33N 67°17' E 014°22'8 0.3
2015-Jan-17 16:33N 67°24' E 014°27'8 7.6
2015-Jan-17 15:33N 67°17' E 014°22'0 0.0
2015-Jan-17 14:33N 67°17' E 014°22'0 0.0
2015-Jan-17 13:33N 67°17' E 014°22'0 0.0
2015-Jan-17 12:33N 67°17' E 014°22'0 0.0
2015-Jan-17 11:33N 67°17' E 014°22'1211.8
2015-Jan-17 10:32N 67°08' E 014°02'14 0.7
2015-Jan-16 16:11N 66°59' E 013°35'1421.3
2015-Jan-16 15:33N 67°07' E 014°02'1212.3
2015-Jan-16 14:33N 67°17' E 014°22'0 0.0
2015-Jan-16 13:33N 67°17' E 014°22'0 0.0
2015-Jan-16 12:33N 67°17' E 014°22'0 0.0
2015-Jan-16 11:33N 67°17' E 014°22'24 1.2
2015-Jan-15 16:06N 67°00' E 013°39'1220.3
2015-Jan-15 15:31N 67°07' E 014°03'1313.4
2015-Jan-15 14:33N 67°17' E 014°24'12 0.5
2015-Jan-14 15:25N 67°09' E 014°02'1213.3
2015-Jan-14 14:33N 67°17' E 014°22'  

Dump ship's entire track history